sensor_id;sensor_type;location;lat;lon;timestamp;temperature;humidity
54684;DHT22;40582;53.100;6.686;2022-08-19T00:00:14;15.80;99.90
54684;DHT22;40582;53.100;6.686;2022-08-19T00:02:41;15.80;99.90
54684;DHT22;40582;53.100;6.686;2022-08-19T00:05:07;15.80;99.90
54684;DHT22;40582;53.100;6.686;2022-08-19T00:07:33;15.80;99.90
54684;DHT22;40582;53.100;6.686;2022-08-19T00:09:59;15.80;99.90
54684;DHT22;40582;53.100;6.686;2022-08-19T00:12:25;15.70;99.90
54684;DHT22;40582;53.100;6.686;2022-08-19T00:14:50;15.70;99.90
54684;DHT22;40582;53.100;6.686;2022-08-19T00:17:16;15.70;99.90
54684;DHT22;40582;53.100;6.686;2022-08-19T00:19:42;15.70;99.90
54684;DHT22;40582;53.100;6.686;2022-08-19T00:22:07;15.70;99.90
54684;DHT22;40582;53.100;6.686;2022-08-19T00:24:34;15.70;99.90
54684;DHT22;40582;53.100;6.686;2022-08-19T00:27:01;15.70;99.90
54684;DHT22;40582;53.100;6.686;2022-08-19T00:29:27;15.60;99.90
54684;DHT22;40582;53.100;6.686;2022-08-19T00:31:53;15.70;99.90
54684;DHT22;40582;53.100;6.686;2022-08-19T00:34:21;15.60;99.90
54684;DHT22;40582;53.100;6.686;2022-08-19T00:36:48;15.50;99.90
54684;DHT22;40582;53.100;6.686;2022-08-19T00:39:18;15.50;99.90
54684;DHT22;40582;53.100;6.686;2022-08-19T00:41:44;15.50;99.90
54684;DHT22;40582;53.100;6.686;2022-08-19T00:44:22;15.50;99.90
54684;DHT22;40582;53.100;6.686;2022-08-19T00:46:51;15.50;99.90
54684;DHT22;40582;53.100;6.686;2022-08-19T00:49:25;15.40;99.90
54684;DHT22;40582;53.100;6.686;2022-08-19T00:51:57;15.40;99.90
54684;DHT22;40582;53.100;6.686;2022-08-19T00:54:23;15.40;99.90
54684;DHT22;40582;53.100;6.686;2022-08-19T00:56:50;15.40;99.90
54684;DHT22;40582;53.100;6.686;2022-08-19T00:59:17;15.40;99.90
54684;DHT22;40582;53.100;6.686;2022-08-19T01:01:44;15.50;99.90
54684;DHT22;40582;53.100;6.686;2022-08-19T01:04:10;15.50;99.90
54684;DHT22;40582;53.100;6.686;2022-08-19T01:06:37;15.40;99.90
54684;DHT22;40582;53.100;6.686;2022-08-19T01:09:04;15.50;99.90
54684;DHT22;40582;53.100;6.686;2022-08-19T01:11:31;15.50;99.90
54684;DHT22;40582;53.100;6.686;2022-08-19T01:13:59;15.50;99.90
54684;DHT22;40582;53.100;6.686;2022-08-19T01:16:27;15.50;99.90
54684;DHT22;40582;53.100;6.686;2022-08-19T01:18:54;15.50;99.90
54684;DHT22;40582;53.100;6.686;2022-08-19T01:21:31;15.40;99.90
54684;DHT22;40582;53.100;6.686;2022-08-19T01:23:58;15.40;99.90
54684;DHT22;40582;53.100;6.686;2022-08-19T01:26:26;15.40;99.90
54684;DHT22;40582;53.100;6.686;2022-08-19T01:28:54;15.60;99.90
54684;DHT22;40582;53.100;6.686;2022-08-19T01:31:23;15.70;99.90
54684;DHT22;40582;53.100;6.686;2022-08-19T01:33:50;15.80;99.90
54684;DHT22;40582;53.100;6.686;2022-08-19T01:36:30;15.90;99.90
54684;DHT22;40582;53.100;6.686;2022-08-19T01:38:57;15.90;99.90
54684;DHT22;40582;53.100;6.686;2022-08-19T01:41:24;16.00;99.90
54684;DHT22;40582;53.100;6.686;2022-08-19T01:43:51;15.90;99.90
54684;DHT22;40582;53.100;6.686;2022-08-19T01:46:18;15.90;99.90
54684;DHT22;40582;53.100;6.686;2022-08-19T01:48:44;15.90;99.90
54684;DHT22;40582;53.100;6.686;2022-08-19T01:51:10;15.90;99.90
54684;DHT22;40582;53.100;6.686;2022-08-19T01:53:37;15.80;99.90
54684;DHT22;40582;53.100;6.686;2022-08-19T01:56:04;15.80;99.90
54684;DHT22;40582;53.100;6.686;2022-08-19T01:58:38;15.80;99.90
54684;DHT22;40582;53.100;6.686;2022-08-19T02:01:05;15.70;99.90
54684;DHT22;40582;53.100;6.686;2022-08-19T02:03:31;15.70;99.90
54684;DHT22;40582;53.100;6.686;2022-08-19T02:05:59;15.70;99.90
54684;DHT22;40582;53.100;6.686;2022-08-19T02:08:27;15.70;99.90
54684;DHT22;40582;53.100;6.686;2022-08-19T02:10:53;15.70;99.90
54684;DHT22;40582;53.100;6.686;2022-08-19T02:13:19;15.70;99.90
54684;DHT22;40582;53.100;6.686;2022-08-19T02:15:45;15.70;99.90
54684;DHT22;40582;53.100;6.686;2022-08-19T02:18:11;15.70;99.90
54684;DHT22;40582;53.100;6.686;2022-08-19T02:20:38;15.60;99.90
54684;DHT22;40582;53.100;6.686;2022-08-19T02:23:05;15.60;99.90
54684;DHT22;40582;53.100;6.686;2022-08-19T02:25:31;15.60;99.90
54684;DHT22;40582;53.100;6.686;2022-08-19T02:27:56;15.50;99.90
54684;DHT22;40582;53.100;6.686;2022-08-19T02:30:22;15.60;99.90
54684;DHT22;40582;53.100;6.686;2022-08-19T02:32:50;15.60;99.90
54684;DHT22;40582;53.100;6.686;2022-08-19T02:35:17;15.60;99.90
54684;DHT22;40582;53.100;6.686;2022-08-19T02:37:43;15.60;99.90
54684;DHT22;40582;53.100;6.686;2022-08-19T02:40:29;15.60;99.90
54684;DHT22;40582;53.100;6.686;2022-08-19T02:42:55;15.50;99.90
54684;DHT22;40582;53.100;6.686;2022-08-19T02:45:21;15.50;99.90
54684;DHT22;40582;53.100;6.686;2022-08-19T02:47:47;15.50;99.90
54684;DHT22;40582;53.100;6.686;2022-08-19T02:50:13;15.50;99.90
54684;DHT22;40582;53.100;6.686;2022-08-19T02:52:39;15.60;99.90
54684;DHT22;40582;53.100;6.686;2022-08-19T02:55:06;15.60;99.90
54684;DHT22;40582;53.100;6.686;2022-08-19T02:57:32;15.60;99.90
54684;DHT22;40582;53.100;6.686;2022-08-19T02:59:58;15.60;99.90
54684;DHT22;40582;53.100;6.686;2022-08-19T03:02:24;15.60;99.90
54684;DHT22;40582;53.100;6.686;2022-08-19T03:04:50;15.60;99.90
54684;DHT22;40582;53.100;6.686;2022-08-19T03:07:17;15.60;99.90
54684;DHT22;40582;53.100;6.686;2022-08-19T03:09:43;15.60;99.90
54684;DHT22;40582;53.100;6.686;2022-08-19T03:12:10;15.60;99.90
54684;DHT22;40582;53.100;6.686;2022-08-19T03:14:36;15.60;99.90
54684;DHT22;40582;53.100;6.686;2022-08-19T03:17:03;15.50;99.90
54684;DHT22;40582;53.100;6.686;2022-08-19T03:19:30;15.40;99.90
54684;DHT22;40582;53.100;6.686;2022-08-19T03:21:57;15.50;99.90
54684;DHT22;40582;53.100;6.686;2022-08-19T03:24:24;15.50;99.90
54684;DHT22;40582;53.100;6.686;2022-08-19T03:26:54;15.40;99.90
54684;DHT22;40582;53.100;6.686;2022-08-19T03:29:23;15.40;99.90
54684;DHT22;40582;53.100;6.686;2022-08-19T03:31:49;15.30;99.90
54684;DHT22;40582;53.100;6.686;2022-08-19T03:34:28;15.30;99.90
54684;DHT22;40582;53.100;6.686;2022-08-19T03:36:57;15.30;99.90
54684;DHT22;40582;53.100;6.686;2022-08-19T03:39:24;15.30;99.90
54684;DHT22;40582;53.100;6.686;2022-08-19T03:41:51;15.30;99.90
54684;DHT22;40582;53.100;6.686;2022-08-19T03:44:20;15.30;99.90
54684;DHT22;40582;53.100;6.686;2022-08-19T03:46:48;15.30;99.90
54684;DHT22;40582;53.100;6.686;2022-08-19T03:49:15;15.30;99.90
54684;DHT22;40582;53.100;6.686;2022-08-19T03:51:41;15.30;99.90
54684;DHT22;40582;53.100;6.686;2022-08-19T03:54:10;15.30;99.90
54684;DHT22;40582;53.100;6.686;2022-08-19T03:56:38;15.20;99.90
54684;DHT22;40582;53.100;6.686;2022-08-19T03:59:06;15.20;99.90
54684;DHT22;40582;53.100;6.686;2022-08-19T04:01:32;15.20;99.90
54684;DHT22;40582;53.100;6.686;2022-08-19T04:03:59;15.20;99.90
54684;DHT22;40582;53.100;6.686;2022-08-19T04:06:34;15.20;99.90
54684;DHT22;40582;53.100;6.686;2022-08-19T04:09:04;15.20;99.90
54684;DHT22;40582;53.100;6.686;2022-08-19T04:11:51;15.20;99.90
54684;DHT22;40582;53.100;6.686;2022-08-19T04:14:22;15.20;99.90
54684;DHT22;40582;53.100;6.686;2022-08-19T04:16:49;15.20;99.90
54684;DHT22;40582;53.100;6.686;2022-08-19T04:19:16;15.20;99.90
54684;DHT22;40582;53.100;6.686;2022-08-19T04:21:47;15.20;99.90
54684;DHT22;40582;53.100;6.686;2022-08-19T04:24:14;15.20;99.90
54684;DHT22;40582;53.100;6.686;2022-08-19T04:26:40;15.20;99.90
54684;DHT22;40582;53.100;6.686;2022-08-19T04:29:09;15.20;99.90
54684;DHT22;40582;53.100;6.686;2022-08-19T04:31:35;15.30;99.90
54684;DHT22;40582;53.100;6.686;2022-08-19T04:34:03;15.30;99.90
54684;DHT22;40582;53.100;6.686;2022-08-19T04:36:32;15.20;99.90
54684;DHT22;40582;53.100;6.686;2022-08-19T04:39:01;15.20;99.90
54684;DHT22;40582;53.100;6.686;2022-08-19T04:41:26;15.20;99.90
54684;DHT22;40582;53.100;6.686;2022-08-19T04:44:12;15.10;99.90
54684;DHT22;40582;53.100;6.686;2022-08-19T04:46:39;15.10;99.90
54684;DHT22;40582;53.100;6.686;2022-08-19T04:49:06;15.10;99.90
54684;DHT22;40582;53.100;6.686;2022-08-19T04:51:32;15.10;99.90
54684;DHT22;40582;53.100;6.686;2022-08-19T04:54:00;15.10;99.90
54684;DHT22;40582;53.100;6.686;2022-08-19T04:56:27;15.10;99.90
54684;DHT22;40582;53.100;6.686;2022-08-19T04:58:54;15.10;99.90
54684;DHT22;40582;53.100;6.686;2022-08-19T05:01:26;15.10;99.90
54684;DHT22;40582;53.100;6.686;2022-08-19T05:03:54;15.10;99.90
54684;DHT22;40582;53.100;6.686;2022-08-19T05:06:21;15.10;99.90
54684;DHT22;40582;53.100;6.686;2022-08-19T05:08:47;15.20;99.90
54684;DHT22;40582;53.100;6.686;2022-08-19T05:11:16;15.20;99.90
54684;DHT22;40582;53.100;6.686;2022-08-19T05:13:43;15.20;99.90
54684;DHT22;40582;53.100;6.686;2022-08-19T05:16:11;15.20;99.90
54684;DHT22;40582;53.100;6.686;2022-08-19T05:18:38;15.20;99.90
54684;DHT22;40582;53.100;6.686;2022-08-19T05:21:22;15.30;99.90
54684;DHT22;40582;53.100;6.686;2022-08-19T05:24:07;15.30;99.90
54684;DHT22;40582;53.100;6.686;2022-08-19T05:26:39;15.30;99.90
54684;DHT22;40582;53.100;6.686;2022-08-19T05:29:05;15.40;99.90
54684;DHT22;40582;53.100;6.686;2022-08-19T05:31:33;15.40;99.90
54684;DHT22;40582;53.100;6.686;2022-08-19T05:33:59;15.40;99.90
54684;DHT22;40582;53.100;6.686;2022-08-19T05:36:37;15.50;99.90
54684;DHT22;40582;53.100;6.686;2022-08-19T05:39:09;15.50;99.90
54684;DHT22;40582;53.100;6.686;2022-08-19T05:41:35;15.60;99.90
54684;DHT22;40582;53.100;6.686;2022-08-19T05:44:03;15.60;99.90
54684;DHT22;40582;53.100;6.686;2022-08-19T05:46:32;15.70;99.90
54684;DHT22;40582;53.100;6.686;2022-08-19T05:48:57;15.70;99.90
54684;DHT22;40582;53.100;6.686;2022-08-19T05:51:24;15.70;99.90
54684;DHT22;40582;53.100;6.686;2022-08-19T05:53:51;15.80;99.90
54684;DHT22;40582;53.100;6.686;2022-08-19T05:56:17;15.90;99.90
54684;DHT22;40582;53.100;6.686;2022-08-19T05:58:45;15.90;99.90
54684;DHT22;40582;53.100;6.686;2022-08-19T06:01:20;16.00;99.90
54684;DHT22;40582;53.100;6.686;2022-08-19T06:03:46;18.00;99.90
54684;DHT22;40582;53.100;6.686;2022-08-19T06:06:15;19.60;99.90
54684;DHT22;40582;53.100;6.686;2022-08-19T06:08:41;20.20;99.90
54684;DHT22;40582;53.100;6.686;2022-08-19T06:11:23;20.60;99.90
54684;DHT22;40582;53.100;6.686;2022-08-19T06:13:52;20.50;99.90
54684;DHT22;40582;53.100;6.686;2022-08-19T06:16:19;20.10;99.90
54684;DHT22;40582;53.100;6.686;2022-08-19T06:18:52;20.00;99.90
54684;DHT22;40582;53.100;6.686;2022-08-19T06:21:20;19.90;99.90
54684;DHT22;40582;53.100;6.686;2022-08-19T06:23:47;20.10;99.90
54684;DHT22;40582;53.100;6.686;2022-08-19T06:26:14;20.00;99.90
54684;DHT22;40582;53.100;6.686;2022-08-19T06:28:40;19.80;99.90
54684;DHT22;40582;53.100;6.686;2022-08-19T06:31:09;19.70;99.90
54684;DHT22;40582;53.100;6.686;2022-08-19T06:33:35;19.50;99.90
54684;DHT22;40582;53.100;6.686;2022-08-19T06:36:01;19.40;99.90
54684;DHT22;40582;53.100;6.686;2022-08-19T06:38:27;19.50;99.90
54684;DHT22;40582;53.100;6.686;2022-08-19T06:41:03;19.50;99.90
54684;DHT22;40582;53.100;6.686;2022-08-19T06:43:29;19.40;99.90
54684;DHT22;40582;53.100;6.686;2022-08-19T06:45:55;19.60;99.90
54684;DHT22;40582;53.100;6.686;2022-08-19T06:48:20;20.10;99.90
54684;DHT22;40582;53.100;6.686;2022-08-19T06:50:46;20.10;99.90
54684;DHT22;40582;53.100;6.686;2022-08-19T06:53:13;20.30;99.90
54684;DHT22;40582;53.100;6.686;2022-08-19T06:55:39;21.70;99.90
54684;DHT22;40582;53.100;6.686;2022-08-19T06:58:06;22.80;99.90
54684;DHT22;40582;53.100;6.686;2022-08-19T07:00:32;23.70;99.90
54684;DHT22;40582;53.100;6.686;2022-08-19T07:02:57;24.70;99.90
54684;DHT22;40582;53.100;6.686;2022-08-19T07:05:24;25.40;99.90
54684;DHT22;40582;53.100;6.686;2022-08-19T07:07:50;26.10;99.90
54684;DHT22;40582;53.100;6.686;2022-08-19T07:10:15;26.30;99.90
54684;DHT22;40582;53.100;6.686;2022-08-19T07:12:41;26.40;99.90
54684;DHT22;40582;53.100;6.686;2022-08-19T07:15:07;26.90;99.90
54684;DHT22;40582;53.100;6.686;2022-08-19T07:17:35;27.40;99.90
54684;DHT22;40582;53.100;6.686;2022-08-19T07:20:03;27.60;99.90
54684;DHT22;40582;53.100;6.686;2022-08-19T07:22:29;27.70;99.60
54684;DHT22;40582;53.100;6.686;2022-08-19T07:24:54;27.10;99.90
54684;DHT22;40582;53.100;6.686;2022-08-19T07:27:21;27.40;99.90
54684;DHT22;40582;53.100;6.686;2022-08-19T07:29:47;27.10;99.90
54684;DHT22;40582;53.100;6.686;2022-08-19T07:32:12;25.90;99.90
54684;DHT22;40582;53.100;6.686;2022-08-19T07:34:38;25.80;99.90
54684;DHT22;40582;53.100;6.686;2022-08-19T07:37:05;26.00;99.90
54684;DHT22;40582;53.100;6.686;2022-08-19T07:39:34;26.60;99.90
54684;DHT22;40582;53.100;6.686;2022-08-19T07:42:02;26.00;99.90
54684;DHT22;40582;53.100;6.686;2022-08-19T07:44:29;25.80;99.90
54684;DHT22;40582;53.100;6.686;2022-08-19T07:46:56;26.40;99.90
54684;DHT22;40582;53.100;6.686;2022-08-19T07:49:23;26.40;99.90
54684;DHT22;40582;53.100;6.686;2022-08-19T07:51:55;27.10;99.90
54684;DHT22;40582;53.100;6.686;2022-08-19T07:54:24;27.40;99.90
54684;DHT22;40582;53.100;6.686;2022-08-19T07:56:50;27.10;99.90
54684;DHT22;40582;53.100;6.686;2022-08-19T07:59:17;26.00;99.90
54684;DHT22;40582;53.100;6.686;2022-08-19T08:01:43;25.60;99.90
54684;DHT22;40582;53.100;6.686;2022-08-19T08:04:09;25.20;99.90
54684;DHT22;40582;53.100;6.686;2022-08-19T08:06:54;25.10;99.90
54684;DHT22;40582;53.100;6.686;2022-08-19T08:09:40;24.90;99.90
54684;DHT22;40582;53.100;6.686;2022-08-19T08:12:09;25.00;99.90
54684;DHT22;40582;53.100;6.686;2022-08-19T08:14:48;25.60;99.90
54684;DHT22;40582;53.100;6.686;2022-08-19T08:17:16;26.10;99.90
54684;DHT22;40582;53.100;6.686;2022-08-19T08:19:43;25.70;99.90
54684;DHT22;40582;53.100;6.686;2022-08-19T08:22:11;25.60;99.90
54684;DHT22;40582;53.100;6.686;2022-08-19T08:24:56;25.60;99.90
54684;DHT22;40582;53.100;6.686;2022-08-19T08:27:24;25.70;99.90
54684;DHT22;40582;53.100;6.686;2022-08-19T08:29:49;26.30;99.90
54684;DHT22;40582;53.100;6.686;2022-08-19T08:32:15;26.60;99.90
54684;DHT22;40582;53.100;6.686;2022-08-19T08:34:42;26.70;99.90
54684;DHT22;40582;53.100;6.686;2022-08-19T08:37:08;26.90;99.90
54684;DHT22;40582;53.100;6.686;2022-08-19T08:39:33;26.90;99.90
54684;DHT22;40582;53.100;6.686;2022-08-19T08:42:34;26.90;99.90
54684;DHT22;40582;53.100;6.686;2022-08-19T08:45:13;26.90;99.80
54684;DHT22;40582;53.100;6.686;2022-08-19T08:47:43;26.90;99.90
54684;DHT22;40582;53.100;6.686;2022-08-19T08:50:34;26.70;99.90
54684;DHT22;40582;53.100;6.686;2022-08-19T08:53:03;26.60;99.90
54684;DHT22;40582;53.100;6.686;2022-08-19T08:55:31;26.80;99.90
54684;DHT22;40582;53.100;6.686;2022-08-19T08:58:21;26.70;99.90
54684;DHT22;40582;53.100;6.686;2022-08-19T09:00:49;26.60;99.90
54684;DHT22;40582;53.100;6.686;2022-08-19T09:03:22;26.60;99.90
54684;DHT22;40582;53.100;6.686;2022-08-19T09:14:24;26.50;99.00
54684;DHT22;40582;53.100;6.686;2022-08-19T09:16:57;26.50;99.40
54684;DHT22;40582;53.100;6.686;2022-08-19T09:19:23;26.60;99.40
54684;DHT22;40582;53.100;6.686;2022-08-19T09:21:49;26.50;99.20
54684;DHT22;40582;53.100;6.686;2022-08-19T09:24:15;26.50;99.60
54684;DHT22;40582;53.100;6.686;2022-08-19T09:26:41;26.40;99.40
54684;DHT22;40582;53.100;6.686;2022-08-19T09:29:09;26.40;99.00
54684;DHT22;40582;53.100;6.686;2022-08-19T09:31:35;26.40;99.00
54684;DHT22;40582;53.100;6.686;2022-08-19T09:34:01;26.40;99.20
54684;DHT22;40582;53.100;6.686;2022-08-19T09:36:30;26.50;98.90
54684;DHT22;40582;53.100;6.686;2022-08-19T09:38:59;26.50;98.20
54684;DHT22;40582;53.100;6.686;2022-08-19T09:41:26;26.70;97.40
54684;DHT22;40582;53.100;6.686;2022-08-19T09:43:54;26.80;97.60
54684;DHT22;40582;53.100;6.686;2022-08-19T09:46:26;26.80;96.90
54684;DHT22;40582;53.100;6.686;2022-08-19T09:48:53;27.00;96.80
54684;DHT22;40582;53.100;6.686;2022-08-19T09:51:24;27.10;96.90
54684;DHT22;40582;53.100;6.686;2022-08-19T09:53:51;27.20;95.60
54684;DHT22;40582;53.100;6.686;2022-08-19T09:56:21;27.40;95.20
54684;DHT22;40582;53.100;6.686;2022-08-19T09:58:47;27.30;95.00
54684;DHT22;40582;53.100;6.686;2022-08-19T10:01:22;27.40;95.30
54684;DHT22;40582;53.100;6.686;2022-08-19T10:03:50;27.40;95.00
54684;DHT22;40582;53.100;6.686;2022-08-19T10:06:18;27.40;95.30
54684;DHT22;40582;53.100;6.686;2022-08-19T10:08:45;27.60;95.20
54684;DHT22;40582;53.100;6.686;2022-08-19T10:11:11;27.50;95.40
54684;DHT22;40582;53.100;6.686;2022-08-19T10:13:38;27.50;95.40
54684;DHT22;40582;53.100;6.686;2022-08-19T10:16:10;27.60;95.10
54684;DHT22;40582;53.100;6.686;2022-08-19T10:18:38;27.70;94.80
54684;DHT22;40582;53.100;6.686;2022-08-19T10:21:22;27.80;95.40
54684;DHT22;40582;53.100;6.686;2022-08-19T10:23:50;27.80;94.80
54684;DHT22;40582;53.100;6.686;2022-08-19T10:26:19;27.80;95.20
54684;DHT22;40582;53.100;6.686;2022-08-19T10:28:45;27.90;94.80
54684;DHT22;40582;53.100;6.686;2022-08-19T10:31:19;28.00;94.90
54684;DHT22;40582;53.100;6.686;2022-08-19T10:33:45;28.00;94.80
54684;DHT22;40582;53.100;6.686;2022-08-19T10:36:16;28.00;94.80
54684;DHT22;40582;53.100;6.686;2022-08-19T10:38:46;28.10;94.00
54684;DHT22;40582;53.100;6.686;2022-08-19T10:41:14;28.00;93.90
54684;DHT22;40582;53.100;6.686;2022-08-19T10:43:40;27.80;94.00
54684;DHT22;40582;53.100;6.686;2022-08-19T10:46:08;27.80;94.00
54684;DHT22;40582;53.100;6.686;2022-08-19T10:48:34;27.90;94.50
54684;DHT22;40582;53.100;6.686;2022-08-19T10:51:00;28.00;94.40
54684;DHT22;40582;53.100;6.686;2022-08-19T10:53:45;28.10;93.50
54684;DHT22;40582;53.100;6.686;2022-08-19T10:56:10;28.20;93.10
54684;DHT22;40582;53.100;6.686;2022-08-19T10:58:55;28.20;92.90
54684;DHT22;40582;53.100;6.686;2022-08-19T11:01:22;28.40;93.30
54684;DHT22;40582;53.100;6.686;2022-08-19T11:03:47;28.30;92.30
54684;DHT22;40582;53.100;6.686;2022-08-19T11:06:13;28.40;92.50
54684;DHT22;40582;53.100;6.686;2022-08-19T11:08:39;28.60;92.10
54684;DHT22;40582;53.100;6.686;2022-08-19T11:11:07;28.90;91.10
54684;DHT22;40582;53.100;6.686;2022-08-19T11:13:36;29.00;91.20
54684;DHT22;40582;53.100;6.686;2022-08-19T11:16:04;28.90;90.40
54684;DHT22;40582;53.100;6.686;2022-08-19T11:18:30;28.90;90.20
54684;DHT22;40582;53.100;6.686;2022-08-19T11:24:03;29.20;89.80
54684;DHT22;40582;53.100;6.686;2022-08-19T11:26:30;29.30;89.90
54684;DHT22;40582;53.100;6.686;2022-08-19T11:28:57;29.50;86.90
54684;DHT22;40582;53.100;6.686;2022-08-19T11:31:29;29.60;86.20
54684;DHT22;40582;53.100;6.686;2022-08-19T11:33:57;29.80;85.60
54684;DHT22;40582;53.100;6.686;2022-08-19T11:36:25;29.90;85.00
54684;DHT22;40582;53.100;6.686;2022-08-19T11:38:51;29.90;83.60
54684;DHT22;40582;53.100;6.686;2022-08-19T11:41:19;30.10;84.60
54684;DHT22;40582;53.100;6.686;2022-08-19T11:43:45;30.20;84.70
54684;DHT22;40582;53.100;6.686;2022-08-19T11:46:13;30.00;82.60
54684;DHT22;40582;53.100;6.686;2022-08-19T11:48:40;30.20;83.00
54684;DHT22;40582;53.100;6.686;2022-08-19T11:51:10;30.20;82.70
54684;DHT22;40582;53.100;6.686;2022-08-19T11:53:36;30.00;81.90
54684;DHT22;40582;53.100;6.686;2022-08-19T11:56:03;29.60;83.00
54684;DHT22;40582;53.100;6.686;2022-08-19T11:58:29;29.40;83.20
54684;DHT22;40582;53.100;6.686;2022-08-19T12:00:55;29.60;83.60
54684;DHT22;40582;53.100;6.686;2022-08-19T12:03:21;29.60;83.40
54684;DHT22;40582;53.100;6.686;2022-08-19T12:05:47;29.30;84.00
54684;DHT22;40582;53.100;6.686;2022-08-19T12:08:14;29.00;84.40
54684;DHT22;40582;53.100;6.686;2022-08-19T12:10:41;28.80;84.90
54684;DHT22;40582;53.100;6.686;2022-08-19T12:13:11;28.60;84.40
54684;DHT22;40582;53.100;6.686;2022-08-19T12:15:41;28.60;85.90
54684;DHT22;40582;53.100;6.686;2022-08-19T12:18:07;28.80;85.80
54684;DHT22;40582;53.100;6.686;2022-08-19T12:20:38;29.20;85.10
54684;DHT22;40582;53.100;6.686;2022-08-19T12:23:06;29.20;85.20
54684;DHT22;40582;53.100;6.686;2022-08-19T12:25:32;29.20;85.60
54684;DHT22;40582;53.100;6.686;2022-08-19T12:27:58;29.20;86.10
54684;DHT22;40582;53.100;6.686;2022-08-19T12:30:25;29.10;86.20
54684;DHT22;40582;53.100;6.686;2022-08-19T12:32:50;29.00;85.90
54684;DHT22;40582;53.100;6.686;2022-08-19T12:35:17;28.80;85.50
54684;DHT22;40582;53.100;6.686;2022-08-19T12:37:46;28.80;86.10
54684;DHT22;40582;53.100;6.686;2022-08-19T12:40:12;28.80;86.30
54684;DHT22;40582;53.100;6.686;2022-08-19T12:42:39;28.80;86.60
54684;DHT22;40582;53.100;6.686;2022-08-19T12:45:09;28.60;86.80
54684;DHT22;40582;53.100;6.686;2022-08-19T12:47:36;28.60;86.80
54684;DHT22;40582;53.100;6.686;2022-08-19T12:50:02;28.50;86.80
54684;DHT22;40582;53.100;6.686;2022-08-19T12:52:29;28.30;86.10
54684;DHT22;40582;53.100;6.686;2022-08-19T12:54:56;28.20;86.10
54684;DHT22;40582;53.100;6.686;2022-08-19T12:57:28;28.20;87.10
54684;DHT22;40582;53.100;6.686;2022-08-19T13:00:00;28.30;87.70
54684;DHT22;40582;53.100;6.686;2022-08-19T13:02:25;28.40;87.30
54684;DHT22;40582;53.100;6.686;2022-08-19T13:04:51;28.50;85.90
54684;DHT22;40582;53.100;6.686;2022-08-19T13:07:17;28.70;84.80
54684;DHT22;40582;53.100;6.686;2022-08-19T13:09:43;28.80;83.10
54684;DHT22;40582;53.100;6.686;2022-08-19T13:12:08;28.90;81.60
54684;DHT22;40582;53.100;6.686;2022-08-19T13:14:38;28.90;81.50
54684;DHT22;40582;53.100;6.686;2022-08-19T13:17:06;28.80;82.60
54684;DHT22;40582;53.100;6.686;2022-08-19T13:19:32;28.90;81.80
54684;DHT22;40582;53.100;6.686;2022-08-19T13:21:58;28.90;82.20
54684;DHT22;40582;53.100;6.686;2022-08-19T13:24:24;28.90;81.60
54684;DHT22;40582;53.100;6.686;2022-08-19T13:26:50;28.90;81.00
54684;DHT22;40582;53.100;6.686;2022-08-19T13:29:16;28.90;81.50
54684;DHT22;40582;53.100;6.686;2022-08-19T13:32:00;29.00;83.50
54684;DHT22;40582;53.100;6.686;2022-08-19T13:34:44;29.00;82.40
54684;DHT22;40582;53.100;6.686;2022-08-19T13:37:12;29.00;82.80
54684;DHT22;40582;53.100;6.686;2022-08-19T13:39:38;29.00;81.70
54684;DHT22;40582;53.100;6.686;2022-08-19T13:42:04;28.90;82.20
54684;DHT22;40582;53.100;6.686;2022-08-19T13:44:30;28.70;83.20
54684;DHT22;40582;53.100;6.686;2022-08-19T13:47:06;28.40;85.20
54684;DHT22;40582;53.100;6.686;2022-08-19T13:49:33;28.30;88.10
54684;DHT22;40582;53.100;6.686;2022-08-19T13:51:59;28.10;88.80
54684;DHT22;40582;53.100;6.686;2022-08-19T13:54:24;27.90;89.60
54684;DHT22;40582;53.100;6.686;2022-08-19T13:56:50;27.90;90.40
54684;DHT22;40582;53.100;6.686;2022-08-19T13:59:16;27.70;90.80
54684;DHT22;40582;53.100;6.686;2022-08-19T14:01:43;27.60;91.60
54684;DHT22;40582;53.100;6.686;2022-08-19T14:04:08;27.50;92.40
54684;DHT22;40582;53.100;6.686;2022-08-19T14:06:34;27.30;92.90
54684;DHT22;40582;53.100;6.686;2022-08-19T14:09:00;27.20;93.50
54684;DHT22;40582;53.100;6.686;2022-08-19T14:11:27;27.20;94.20
54684;DHT22;40582;53.100;6.686;2022-08-19T14:13:53;27.10;94.80
54684;DHT22;40582;53.100;6.686;2022-08-19T14:16:19;27.00;95.80
54684;DHT22;40582;53.100;6.686;2022-08-19T14:18:46;26.80;96.30
54684;DHT22;40582;53.100;6.686;2022-08-19T14:21:17;26.60;97.00
54684;DHT22;40582;53.100;6.686;2022-08-19T14:23:45;26.50;98.10
54684;DHT22;40582;53.100;6.686;2022-08-19T14:26:13;26.40;98.40
54684;DHT22;40582;53.100;6.686;2022-08-19T14:28:40;26.40;98.50
54684;DHT22;40582;53.100;6.686;2022-08-19T14:31:11;26.40;98.90
54684;DHT22;40582;53.100;6.686;2022-08-19T14:33:37;26.40;99.00
54684;DHT22;40582;53.100;6.686;2022-08-19T14:36:03;26.30;99.10
54684;DHT22;40582;53.100;6.686;2022-08-19T14:38:29;26.30;98.70
54684;DHT22;40582;53.100;6.686;2022-08-19T14:41:15;26.30;98.90
54684;DHT22;40582;53.100;6.686;2022-08-19T14:43:44;26.20;98.50
54684;DHT22;40582;53.100;6.686;2022-08-19T14:46:15;26.00;99.00
54684;DHT22;40582;53.100;6.686;2022-08-19T14:48:42;26.00;99.60
54684;DHT22;40582;53.100;6.686;2022-08-19T14:51:08;26.00;99.70
54684;DHT22;40582;53.100;6.686;2022-08-19T14:53:34;25.90;99.90
54684;DHT22;40582;53.100;6.686;2022-08-19T14:56:00;25.90;99.90
54684;DHT22;40582;53.100;6.686;2022-08-19T14:58:26;25.90;99.90
54684;DHT22;40582;53.100;6.686;2022-08-19T15:00:52;25.80;99.90
54684;DHT22;40582;53.100;6.686;2022-08-19T15:03:17;25.70;99.90
54684;DHT22;40582;53.100;6.686;2022-08-19T15:05:43;25.70;99.90
54684;DHT22;40582;53.100;6.686;2022-08-19T15:08:09;25.70;99.90
54684;DHT22;40582;53.100;6.686;2022-08-19T15:10:35;25.60;99.90
54684;DHT22;40582;53.100;6.686;2022-08-19T15:13:01;25.40;99.90
54684;DHT22;40582;53.100;6.686;2022-08-19T15:15:27;25.30;99.90
54684;DHT22;40582;53.100;6.686;2022-08-19T15:17:53;25.20;99.90
54684;DHT22;40582;53.100;6.686;2022-08-19T15:20:20;25.00;99.90
54684;DHT22;40582;53.100;6.686;2022-08-19T15:22:49;25.00;99.90
54684;DHT22;40582;53.100;6.686;2022-08-19T15:25:16;24.90;99.90
54684;DHT22;40582;53.100;6.686;2022-08-19T15:27:44;24.80;99.90
54684;DHT22;40582;53.100;6.686;2022-08-19T15:30:10;24.80;99.90
54684;DHT22;40582;53.100;6.686;2022-08-19T15:32:37;24.90;99.90
54684;DHT22;40582;53.100;6.686;2022-08-19T15:35:04;25.10;99.90
54684;DHT22;40582;53.100;6.686;2022-08-19T15:37:30;25.30;99.90
54684;DHT22;40582;53.100;6.686;2022-08-19T15:39:56;25.60;99.90
54684;DHT22;40582;53.100;6.686;2022-08-19T15:42:21;25.70;99.90
54684;DHT22;40582;53.100;6.686;2022-08-19T15:44:47;25.90;99.90
54684;DHT22;40582;53.100;6.686;2022-08-19T15:47:13;26.00;99.90